Time;durP1;ratioP1;P1;durP2;ratioP2;P2;SDS_P1;SDS_P2;PMS_P1;PMS_P2;Temp;Humidity;BMP_temperature;BMP_pressure;BME280_temperature;BME280_humidity;BME280_pressure;Samples;Min_cycle;Max_cycle;Signal;HPM_P1;HPM_P2
2023/04/22 00:05:56;;;;;;;1.53;0.90;;;;;;;;;;20975783;28;20213;-71
2023/04/22 00:15:58;;;;;;;1.17;0.70;;;;;;;;;;20982810;28;20266;-72
2023/04/22 00:26:00;;;;;;;1.97;0.83;;;;;;;;;;20984821;28;20706;-71
2023/04/22 00:36:02;;;;;;;1.90;0.90;;;;;;;;;;20981179;28;20591;-71
2023/04/22 00:46:04;;;;;;;1.93;0.80;;;;;;;;;;20980432;28;20250;-71
2023/04/22 00:56:05;;;;;;;1.37;0.80;;;;;;;;;;20978990;28;20217;-71
2023/04/22 01:06:07;;;;;;;1.37;0.80;;;;;;;;;;20978794;28;20205;-72
2023/04/22 01:16:09;;;;;;;1.63;1.10;;;;;;;;;;20978983;28;20216;-71
2023/04/22 01:26:11;;;;;;;1.60;0.97;;;;;;;;;;20979960;28;20680;-71
2023/04/22 01:36:12;;;;;;;0.87;0.70;;;;;;;;;;20977942;28;20243;-71
2023/04/22 01:46:16;;;;;;;0.83;0.57;;;;;;;;;;20978919;28;20205;-72
2023/04/22 01:56:18;;;;;;;2.67;1.03;;;;;;;;;;20977911;28;20282;-71
2023/04/22 02:06:20;;;;;;;1.13;0.70;;;;;;;;;;20992899;28;20259;-71
2023/04/22 02:16:22;;;;;;;0.90;0.80;;;;;;;;;;20994216;28;20266;-71
2023/04/22 02:26:24;;;;;;;1.73;0.70;;;;;;;;;;20992059;28;20254;-71
2023/04/22 02:36:27;;;;;;;5.50;0.93;;;;;;;;;;20989374;28;20247;-72
2023/04/22 02:46:29;;;;;;;1.93;0.87;;;;;;;;;;20990260;28;20202;-71
2023/04/22 02:56:31;;;;;;;0.83;0.60;;;;;;;;;;20973097;28;20221;-71
2023/04/22 03:06:32;;;;;;;0.80;0.47;;;;;;;;;;20972449;28;20750;-72
2023/04/22 03:16:34;;;;;;;1.13;0.60;;;;;;;;;;20972305;28;20221;-72
2023/04/22 03:26:39;;;;;;;1.00;0.60;;;;;;;;;;20987125;28;20205;-72
2023/04/22 03:36:41;;;;;;;1.60;0.70;;;;;;;;;;20986860;28;20270;-71
2023/04/22 03:46:43;;;;;;;1.20;0.80;;;;;;;;;;20984935;28;20209;-71
2023/04/22 03:56:54;;;;;;;1.83;0.87;;;12.40;99.90;;;;;;20977243;28;20232;-71
2023/04/22 04:06:58;;;;;;;2.30;1.30;;;;;;;;;;20982500;28;20213;-71
2023/04/22 04:17:02;;;;;;;0.80;0.60;;;;;;;;;;20974078;28;20278;-71
2023/04/22 04:27:07;;;;;;;0.70;0.50;;;12.20;99.90;;;;;;20943747;28;20716;-72
2023/04/22 04:37:16;;;;;;;2.13;0.60;;;;;;;;;;20966894;28;20233;-73
2023/04/22 04:47:39;;;;;;;0.73;0.57;;;;;;;;;;20985098;28;20221;-72
2023/04/22 04:57:51;;;;;;;2.00;0.87;;;;;;;;;;20994384;28;20259;-71
2023/04/22 05:07:53;;;;;;;0.67;0.50;;;;;;;;;;20971984;28;20681;-71
2023/04/22 05:17:55;;;;;;;1.67;0.77;;;;;;;;;;20954396;28;20237;-72
2023/04/22 05:27:57;;;;;;;0.73;0.50;;;;;;;;;;20975750;28;20267;-74
2023/04/22 05:38:02;;;;;;;1.73;0.73;;;;;;;;;;20991766;28;20270;-72
2023/04/22 05:48:06;;;;;;;1.30;0.80;;;;;;;;;;20976318;28;20246;-74
2023/04/22 05:58:14;;;;;;;1.10;0.70;;;;;;;;;;20992292;28;20777;-71
2023/04/22 06:08:23;;;;;;;1.30;0.60;;;;;;;;;;20992212;28;20213;-72
2023/04/22 06:18:25;;;;;;;0.97;0.70;;;;;;;;;;20987053;28;20217;-71
2023/04/22 06:28:28;;;;;;;2.17;0.73;;;;;;;;;;20981483;28;20224;-72
2023/04/22 06:38:32;;;;;;;3.40;0.97;;;;;;;;;;20985635;28;20217;-72
2023/04/22 06:48:50;;;;;;;2.23;1.23;;;;;;;;;;20973429;28;20764;-72
2023/04/22 06:59:12;;;;;;;2.27;0.97;;;;;;;;;;20973190;28;20241;-71
2023/04/22 07:09:14;;;;;;;1.93;1.10;;;;;;;;;;20984182;28;20205;-74
2023/04/22 07:19:17;;;;;;;1.20;1.00;;;;;;;;;;20986670;28;20247;-72
2023/04/22 07:29:19;;;;;;;1.60;1.10;;;;;;;;;;20985533;28;20239;-70
2023/04/22 07:39:21;;;;;;;1.60;0.90;;;;;;;;;;20983607;28;20217;-70
2023/04/22 07:49:22;;;;;;;1.40;1.00;;;;;;;;;;20972795;28;20232;-70
2023/04/22 07:59:24;;;;;;;1.47;1.13;;;;;;;;;;20973220;28;20221;-70
2023/04/22 08:09:26;;;;;;;1.50;1.10;;;;;;;;;;20986737;28;20266;-72
2023/04/22 08:19:28;;;;;;;1.40;0.90;;;;;;;;;;20960652;28;20245;-69
2023/04/22 08:29:30;;;;;;;1.63;1.03;;;;;;;;;;20971446;28;20225;-69
2023/04/22 08:39:32;;;;;;;2.03;1.00;;;;;;;;;;20930785;28;20647;-69
2023/04/22 08:49:37;;;;;;;1.30;0.83;;;;;;;;;;20949733;28;20693;-72
2023/04/22 08:59:40;;;;;;;1.00;0.63;;;;;;;;;;20973212;22;20233;-68
2023/04/22 09:09:43;;;;;;;1.20;0.97;;;16.00;99.90;;;;;;20770825;28;20215;-68
2023/04/22 09:19:45;;;;;;;1.30;0.70;;;;;;;;;;20763207;28;20222;-68
2023/04/22 09:29:51;;;;;;;1.30;0.80;;;16.80;99.90;;;;;;20716968;28;20561;-68
2023/04/22 09:39:53;;;;;;;1.33;0.90;;;17.50;99.90;;;;;;20726241;28;20277;-68
2023/04/22 09:49:55;;;;;;;2.37;0.80;;;;;;;;;;20718948;28;20254;-68
2023/04/22 09:59:58;;;;;;;3.03;1.33;;;;;;;;;;20710423;28;20788;-70
2023/04/22 10:10:00;;;;;;;1.33;0.90;;;;;;;;;;20721063;28;20242;-68
2023/04/22 10:20:05;;;;;;;2.40;0.70;;;;;;;;;;20715808;28;20261;-69
2023/04/22 10:30:08;;;;;;;1.30;1.00;;;;;;;;;;20728081;28;20246;-69
2023/04/22 10:40:12;;;;;;;1.67;0.80;;;19.10;99.90;;;;;;20728482;28;20278;-69
2023/04/22 10:50:20;;;;;;;1.37;0.80;;;19.50;99.90;;;;;;20717269;28;20231;-69
2023/04/22 11:00:23;;;;;;;2.50;0.60;;;;;;;;;;20716652;28;20231;-69
2023/04/22 11:10:39;;;;;;;1.87;0.50;;;;;;;;;;20708810;28;20215;-72
2023/04/22 11:20:41;;;;;;;2.20;0.60;;;;;;;;;;20716379;28;20282;-70
2023/04/22 11:30:43;;;;;;;1.17;0.53;;;;;;;;;;20721494;28;20276;-70
2023/04/22 11:40:45;;;;;;;1.37;0.57;;;;;;;;;;20712164;28;20224;-70
2023/04/22 11:50:47;;;;;;;0.50;0.40;;;;;;;;;;20711870;28;20567;-69
2023/04/22 12:00:50;;;;;;;0.53;0.37;;;;;;;;;;20697429;28;20774;-69
2023/04/22 12:10:54;;;;;;;0.93;0.53;;;;;;;;;;20694407;28;20718;-71
2023/04/22 12:21:00;;;;;;;1.00;0.60;;;;;;;;;;20721236;28;20275;-73
2023/04/22 12:31:01;;;;;;;3.07;0.50;;;;;;;;;;20722584;28;20212;-70
2023/04/22 12:41:04;;;;;;;0.30;0.30;;;;;;;;;;20717168;28;20218;-69
2023/04/22 12:51:06;;;;;;;2.57;0.60;;;;;;;;;;20712710;28;20244;-69
2023/04/22 13:01:08;;;;;;;0.90;0.53;;;;;;;;;;20731962;28;20232;-69
2023/04/22 13:11:10;;;;;;;1.63;0.50;;;;;;;;;;20712259;28;20207;-69
2023/04/22 13:21:13;;;;;;;0.70;0.50;;;;;;;;;;20724444;28;20779;-71
2023/04/22 13:31:16;;;;;;;0.63;0.43;;;;;;;;;;20716083;28;20219;-68
2023/04/22 13:41:18;;;;;;;0.53;0.40;;;;;;;;;;20713498;28;20219;-68
2023/04/22 13:51:19;;;;;;;0.60;0.40;;;;;;;;;;20699065;28;20207;-69
2023/04/22 14:01:21;;;;;;;0.50;0.37;;;;;;;;;;20696348;28;20639;-68
2023/04/22 14:11:24;;;;;;;0.60;0.40;;;;;;;;;;20688797;28;20592;-69
2023/04/22 14:21:26;;;;;;;1.60;0.40;;;;;;;;;;20713475;28;20293;-69
2023/04/22 14:31:28;;;;;;;1.43;0.50;;;;;;;;;;20713514;28;20215;-69
2023/04/22 14:41:30;;;;;;;0.50;0.37;;;19.40;99.90;;;;;;20731649;28;20219;-70
2023/04/22 14:51:33;;;;;;;1.10;0.60;;;;;;;;;;20699414;28;20207;-69
2023/04/22 15:01:39;;;;;;;1.80;0.50;;;;;;;;;;20727870;22;20227;-74
2023/04/22 15:11:41;;;;;;;1.17;0.60;;;;;;;;;;20614885;28;20219;-74
2023/04/22 15:21:43;;;;;;;0.80;0.50;;;;;;;;;;20631226;28;20286;-74
2023/04/22 15:31:44;;;;;;;0.73;0.40;;;19.90;99.90;;;;;;20630847;28;20193;-73
2023/04/22 15:41:46;;;;;;;1.10;0.50;;;;;;;;;;20645918;28;20225;-73
2023/04/22 15:51:49;;;;;;;0.97;0.50;;;;;;;;;;20643215;28;20215;-74
2023/04/22 16:01:50;;;;;;;2.37;0.70;;;;;;;;;;20626991;28;20221;-74
2023/04/22 16:11:54;;;;;;;0.60;0.40;;;;;;;;;;20633497;28;20275;-74
2023/04/22 16:21:56;;;;;;;1.03;0.30;;;;;;;;;;20623366;28;20223;-74
2023/04/22 16:31:58;;;;;;;0.83;0.47;;;;;;;;;;20623163;28;20945;-74
2023/04/22 16:42:01;;;;;;;1.00;0.70;;;18.10;99.90;;;;;;20603489;28;20278;-74
2023/04/22 16:52:03;;;;;;;1.20;0.70;;;;;;;;;;20629242;28;20211;-74
2023/04/22 17:02:05;;;;;;;1.23;0.63;;;;;;;;;;20661456;28;20237;-75
2023/04/22 17:12:08;;;;;;;0.77;0.60;;;;;;;;;;20717704;28;20722;-75
2023/04/22 17:22:10;;;;;;;1.83;0.60;;;;;;;;;;20704287;28;20219;-76
2023/04/22 17:32:11;;;;;;;0.80;0.50;;;;;;;;;;20703715;28;20215;-76
2023/04/22 17:42:13;;;;;;;0.50;0.40;;;;;;;;;;20703184;28;20284;-75
2023/04/22 17:52:15;;;;;;;1.60;0.57;;;;;;;;;;20705419;28;20245;-75
2023/04/22 18:02:17;;;;;;;1.33;0.60;;;;;;;;;;20705426;28;20231;-75
2023/04/22 18:12:22;;;;;;;0.60;0.40;;;;;;;;;;20705173;28;20286;-76
2023/04/22 18:22:25;;;;;;;0.67;0.43;;;18.40;99.90;;;;;;20705133;28;20223;-76
2023/04/22 18:32:26;;;;;;;1.67;0.60;;;;;;;;;;20688769;28;20267;-76
2023/04/22 18:42:28;;;;;;;0.50;0.40;;;;;;;;;;20727161;28;20262;-76
2023/04/22 18:52:30;;;;;;;1.03;0.50;;;;;;;;;;20701994;28;20204;-76
2023/04/22 19:02:32;;;;;;;1.10;0.67;;;;;;;;;;20716945;28;20280;-76
2023/04/22 19:12:34;;;;;;;0.93;0.57;;;;;;;;;;20715716;28;20250;-76
2023/04/22 19:22:36;;;;;;;1.23;0.70;;;;;;;;;;20731725;28;20690;-75
2023/04/22 19:32:38;;;;;;;1.13;0.67;;;;;;;;;;20730615;28;20231;-76
2023/04/22 19:42:40;;;;;;;1.07;0.60;;;17.80;99.90;;;;;;20697824;28;20218;-75
2023/04/22 19:52:45;;;;;;;0.67;0.43;;;;;;;;;;20712963;28;20715;-76
2023/04/22 20:02:47;;;;;;;0.47;0.40;;;;;;;;;;20728354;28;20719;-75
2023/04/22 20:12:49;;;;;;;1.97;0.40;;;;;;;;;;20727176;28;20899;-75
2023/04/22 20:22:52;;;;;;;0.60;0.43;;;;;;;;;;20694315;28;20223;-75
2023/04/22 20:32:53;;;;;;;1.07;0.60;;;;;;;;;;20693353;28;20211;-74
2023/04/22 20:42:57;;;;;;;1.63;0.70;;;;;;;;;;20708681;28;20219;-74
2023/04/22 20:52:59;;;;;;;0.87;0.60;;;;;;;;;;20691689;28;20211;-74
2023/04/22 21:03:05;;;;;;;0.40;0.30;;;17.10;99.90;;;;;;20706665;28;20289;-74
2023/04/22 21:13:07;;;;;;;0.90;0.40;;;;;;;;;;20632673;28;20281;-73
2023/04/22 21:23:09;;;;;;;0.40;0.40;;;;;;;;;;20688998;28;20850;-74
2023/04/22 21:33:11;;;;;;;1.10;0.60;;;;;;;;;;20795209;23;20257;-75
2023/04/22 21:43:13;;;;;;;0.40;0.40;;;;;;;;;;20852787;28;20701;-75
2023/04/22 21:53:17;;;;;;;0.60;0.60;;;;;;;;;;20818740;28;20546;-74
2023/04/22 22:03:18;;;;;;;0.53;0.40;;;;;;;;;;20818730;28;20550;-75
2023/04/22 22:13:20;;;;;;;0.73;0.50;;;;;;;;;;20818734;28;20682;-73
2023/04/22 22:23:22;;;;;;;0.40;0.40;;;;;;;;;;20841027;28;20256;-74
2023/04/22 22:33:24;;;;;;;0.50;0.50;;;;;;;;;;20830731;28;20603;-74
2023/04/22 22:43:26;;;;;;;0.50;0.40;;;;;;;;;;20829619;28;20235;-75
2023/04/22 22:53:28;;;;;;;0.87;0.50;;;;;;;;;;20829213;28;20203;-74
2023/04/22 23:03:30;;;;;;;0.90;0.50;;;;;;;;;;20828762;28;20219;-74
2023/04/22 23:13:31;;;;;;;0.80;0.47;;;;;;;;;;20810573;28;20269;-74
2023/04/22 23:23:35;;;;;;;1.67;0.50;;;;;;;;;;20807296;28;20581;-74
2023/04/22 23:33:39;;;;;;;0.67;0.40;;;16.10;99.90;;;;;;20826942;28;20283;-74
2023/04/22 23:43:41;;;;;;;1.13;0.50;;;;;;;;;;20825605;28;20214;-73
2023/04/22 23:53:44;;;;;;;0.70;0.50;;;;;;;;;;20824882;28;20206;-74
